Time;durP1;ratioP1;P1;durP2;ratioP2;P2;SDS_P1;SDS_P2;PMS_P1;PMS_P2;Temp;Humidity;BMP_temperature;BMP_pressure;BME280_temperature;BME280_humidity;BME280_pressure;Samples;Min_cycle;Max_cycle;Signal;HPM_P1;HPM_P2
2023/03/09 00:01:20;;;;;;;3.85;1.30;;;12.10;64.00;;;;;;6216567;23;19997;-72
2023/03/09 00:03:47;;;;;;;1.38;1.27;;;12.00;54.60;;;;;;6216209;23;20016;-72
2023/03/09 00:06:13;;;;;;;1.33;1.17;;;12.10;54.60;;;;;;6215951;23;20004;-72
2023/03/09 00:08:39;;;;;;;1.13;1.02;;;12.00;54.60;;;;;;6226374;23;20366;-70
2023/03/09 00:11:06;;;;;;;0.90;0.90;;;12.10;54.70;;;;;;6216267;23;19997;-70
2023/03/09 00:13:32;;;;;;;1.13;0.95;;;12.00;54.70;;;;;;6226343;23;20031;-70
2023/03/09 00:16:11;;;;;;;1.60;1.00;;;12.00;54.70;;;;;;6226195;23;20005;-70
2023/03/09 00:18:37;;;;;;;1.10;1.00;;;12.00;54.70;;;;;;6226313;23;20051;-70
2023/03/09 00:21:03;;;;;;;1.00;0.93;;;12.00;54.70;;;;;;6216440;23;20005;-70
2023/03/09 00:23:29;;;;;;;1.30;1.20;;;12.00;54.70;;;;;;6226303;23;20001;-70
2023/03/09 00:25:54;;;;;;;1.25;1.15;;;12.00;54.70;;;;;;6226170;23;19993;-70
2023/03/09 00:28:20;;;;;;;1.15;1.15;;;12.00;54.60;;;;;;6226310;23;20004;-72
2023/03/09 00:30:46;;;;;;;1.08;0.98;;;12.00;54.70;;;;;;6214437;23;20047;-72
2023/03/09 00:33:11;;;;;;;0.80;0.80;;;12.00;54.80;;;;;;6226183;23;20519;-72
2023/03/09 00:35:37;;;;;;;1.15;1.05;;;12.00;54.70;;;;;;6226073;23;20043;-72
2023/03/09 00:38:03;;;;;;;1.13;1.02;;;12.00;54.60;;;;;;6226075;23;20025;-72
2023/03/09 00:40:29;;;;;;;0.90;0.90;;;12.00;54.70;;;;;;6225999;23;20443;-72
2023/03/09 00:42:55;;;;;;;0.90;0.90;;;12.00;54.70;;;;;;6226054;23;20084;-72
2023/03/09 00:45:22;;;;;;;1.13;1.05;;;12.00;54.70;;;;;;6226068;23;20001;-70
2023/03/09 00:47:48;;;;;;;1.17;1.08;;;12.00;54.70;;;;;;6226067;23;19997;-70
2023/03/09 00:50:14;;;;;;;1.10;1.00;;;12.00;54.70;;;;;;6225923;23;20031;-70
2023/03/09 00:52:40;;;;;;;0.98;0.88;;;11.90;54.70;;;;;;6225932;23;20069;-70
2023/03/09 00:55:06;;;;;;;0.93;0.82;;;12.00;54.80;;;;;;6225767;23;20436;-70
2023/03/09 00:57:32;;;;;;;0.98;0.85;;;12.00;54.80;;;;;;6225865;23;19993;-70
2023/03/09 00:59:57;;;;;;;1.40;1.30;;;12.00;54.90;;;;;;6225846;23;20000;-70
2023/03/09 01:02:23;;;;;;;0.90;0.90;;;12.00;54.80;;;;;;6225483;23;20044;-70
2023/03/09 01:04:49;;;;;;;0.80;0.80;;;12.00;54.90;;;;;;6215616;23;20456;-72
2023/03/09 01:07:15;;;;;;;1.50;1.40;;;12.00;54.80;;;;;;6225839;23;20000;-72
2023/03/09 01:09:41;;;;;;;1.50;1.40;;;11.90;54.70;;;;;;6216133;23;20015;-72
2023/03/09 01:12:08;;;;;;;1.20;1.10;;;12.00;54.80;;;;;;6225819;23;20004;-72
2023/03/09 01:14:34;;;;;;;1.38;1.20;;;11.90;54.70;;;;;;6215919;23;20353;-72
2023/03/09 01:17:00;;;;;;;1.10;1.00;;;11.90;54.80;;;;;;6225652;23;19993;-72
2023/03/09 01:19:26;;;;;;;1.00;1.00;;;11.90;54.70;;;;;;6215949;23;20375;-72
2023/03/09 01:21:53;;;;;;;0.90;0.90;;;11.90;54.80;;;;;;6225718;23;19993;-72
2023/03/09 01:24:18;;;;;;;1.00;1.00;;;11.90;54.80;;;;;;6225558;23;20111;-70
2023/03/09 01:26:44;;;;;;;0.75;0.75;;;11.90;54.80;;;;;;6225587;23;20024;-70
2023/03/09 01:29:10;;;;;;;1.13;0.95;;;11.90;54.80;;;;;;6225528;23;20015;-69
2023/03/09 01:31:35;;;;;;;0.88;0.88;;;12.00;54.80;;;;;;6225618;23;19997;-70
2023/03/09 01:34:01;;;;;;;1.00;0.90;;;11.90;55.40;;;;;;6225354;23;20309;-70
2023/03/09 01:36:26;;;;;;;1.05;0.95;;;11.90;54.90;;;;;;6225562;23;20075;-69
2023/03/09 01:38:52;;;;;;;0.90;0.90;;;11.90;54.90;;;;;;6225542;23;20379;-70
2023/03/09 01:41:20;;;;;;;1.13;1.02;;;11.90;54.80;;;;;;6215804;23;20000;-72
2023/03/09 01:43:50;;;;;;;1.00;1.00;;;11.90;54.80;;;;;;6225545;23;20071;-72
2023/03/09 01:46:22;;;;;;;1.30;1.20;;;11.90;54.90;;;;;;6213697;23;20001;-72
2023/03/09 01:48:54;;;;;;;0.80;0.80;;;11.90;54.80;;;;;;6213765;23;19996;-72
2023/03/09 01:51:24;;;;;;;0.80;0.80;;;11.90;54.80;;;;;;6215241;23;20001;-72
2023/03/09 01:53:51;;;;;;;1.40;1.30;;;11.90;54.80;;;;;;6225291;23;19992;-72
2023/03/09 01:56:20;;;;;;;1.10;1.00;;;11.90;54.80;;;;;;6225251;23;20000;-72
2023/03/09 01:58:49;;;;;;;1.83;1.13;;;11.90;54.90;;;;;;6225471;23;20091;-70
2023/03/09 02:01:16;;;;;;;0.80;0.80;;;11.70;64.20;;;;;;6225267;23;20323;-72
2023/03/09 02:03:47;;;;;;;0.93;0.93;;;11.90;54.90;;;;;;6225122;23;20015;-72
2023/03/09 02:06:16;;;;;;;0.75;0.75;;;11.90;54.90;;;;;;6225243;23;20054;-72
2023/03/09 02:08:50;;;;;;;0.98;0.95;;;11.90;54.90;;;;;;6225344;23;19997;-72
2023/03/09 02:11:16;;;;;;;0.90;0.90;;;11.90;54.90;;;;;;6213579;23;19996;-72
2023/03/09 02:13:46;;;;;;;0.82;0.82;;;11.90;54.90;;;;;;6225127;23;19999;-72
2023/03/09 02:16:11;;;;;;;1.30;1.20;;;11.90;55.00;;;;;;6224903;23;20005;-72
2023/03/09 02:18:38;;;;;;;1.00;1.00;;;11.90;55.60;;;;;;6225192;23;20430;-72
2023/03/09 02:21:32;;;;;;;1.00;1.00;;;11.90;54.90;;;;;;6215417;23;20001;-73
2023/03/09 02:24:11;;;;;;;1.08;1.08;;;11.90;54.90;;;;;;6225106;23;19997;-72
2023/03/09 02:27:01;;;;;;;0.80;0.80;;;11.80;54.90;;;;;;6225191;23;19997;-72
2023/03/09 02:29:28;;;;;;;0.80;0.80;;;11.80;54.90;;;;;;6225089;23;20320;-72
2023/03/09 02:31:54;;;;;;;1.30;0.93;;;11.80;54.90;;;;;;6215287;23;20000;-72
2023/03/09 02:34:20;;;;;;;1.00;1.00;;;11.80;54.90;;;;;;6224927;23;20008;-72
2023/03/09 02:36:45;;;;;;;1.25;1.20;;;11.80;54.90;;;;;;6225067;23;20020;-72
2023/03/09 02:39:29;;;;;;;1.05;0.90;;;11.90;55.00;;;;;;6224945;23;20024;-71
2023/03/09 02:41:57;;;;;;;0.90;0.90;;;11.90;55.00;;;;;;6224961;23;20001;-72
2023/03/09 02:44:24;;;;;;;1.40;0.90;;;11.80;54.90;;;;;;6224873;23;20309;-72
2023/03/09 02:46:49;;;;;;;0.88;0.88;;;11.80;55.50;;;;;;6224839;23;20029;-75
2023/03/09 02:49:16;;;;;;;1.05;0.95;;;11.80;54.90;;;;;;6224788;23;20000;-72
2023/03/09 02:51:41;;;;;;;0.95;0.95;;;11.80;55.00;;;;;;6224849;23;20020;-72
2023/03/09 02:54:07;;;;;;;0.90;0.90;;;11.80;55.00;;;;;;6224809;23;20436;-69
2023/03/09 02:56:33;;;;;;;1.10;1.00;;;11.80;54.90;;;;;;6224826;23;20013;-69
2023/03/09 02:59:01;;;;;;;1.02;1.00;;;11.80;55.00;;;;;;6224752;23;20420;-69
2023/03/09 03:01:27;;;;;;;0.80;0.80;;;11.70;64.50;;;;;;6214495;23;20043;-69
2023/03/09 03:03:52;;;;;;;0.90;0.90;;;11.80;55.00;;;;;;6224469;23;20005;-69
2023/03/09 03:06:18;;;;;;;0.80;0.80;;;11.80;55.00;;;;;;6224707;23;19997;-69
2023/03/09 03:08:43;;;;;;;1.20;1.10;;;11.80;54.90;;;;;;6224669;23;20455;-69
2023/03/09 03:11:09;;;;;;;1.20;0.95;;;11.80;55.00;;;;;;6224800;23;20001;-69
2023/03/09 03:13:34;;;;;;;0.95;0.95;;;11.80;55.00;;;;;;6224689;23;19993;-74
2023/03/09 03:16:01;;;;;;;1.08;0.98;;;11.80;55.00;;;;;;6214874;23;20008;-72
2023/03/09 03:18:27;;;;;;;1.05;1.00;;;11.80;54.90;;;;;;6214907;23;20071;-72
2023/03/09 03:20:52;;;;;;;1.13;1.02;;;11.80;55.10;;;;;;6224634;23;20031;-72
2023/03/09 03:23:18;;;;;;;1.65;1.15;;;11.80;55.00;;;;;;6212976;23;20046;-72
2023/03/09 03:25:43;;;;;;;0.90;0.90;;;11.80;55.00;;;;;;6224345;23;20054;-72
2023/03/09 03:28:09;;;;;;;1.02;0.93;;;11.80;54.90;;;;;;6224297;23;20306;-72
2023/03/09 03:30:35;;;;;;;0.73;0.73;;;11.80;55.00;;;;;;6224614;23;19996;-72
2023/03/09 03:33:00;;;;;;;2.25;1.40;;;11.80;55.00;;;;;;6224631;23;20129;-72
2023/03/09 03:35:26;;;;;;;1.00;1.00;;;11.80;55.10;;;;;;6224377;23;20005;-72
2023/03/09 03:37:51;;;;;;;0.88;0.88;;;11.80;55.00;;;;;;6224484;23;20087;-73
2023/03/09 03:40:18;;;;;;;1.10;1.00;;;11.80;55.00;;;;;;6224467;23;20490;-72
2023/03/09 03:42:44;;;;;;;1.30;1.20;;;11.80;55.10;;;;;;6223068;23;20000;-72
2023/03/09 03:45:10;;;;;;;1.25;1.15;;;11.80;55.10;;;;;;6224515;23;20460;-72
2023/03/09 03:47:35;;;;;;;0.80;0.80;;;11.80;55.10;;;;;;6224548;23;20005;-72
2023/03/09 03:50:01;;;;;;;0.80;0.80;;;11.80;55.10;;;;;;6224580;23;20000;-72
2023/03/09 03:52:27;;;;;;;1.13;1.00;;;11.80;55.10;;;;;;6224579;23;19993;-72
2023/03/09 03:54:52;;;;;;;1.38;1.02;;;11.80;55.20;;;;;;6187740;23;20012;-72
2023/03/09 03:57:18;;;;;;;1.20;1.10;;;11.80;55.20;;;;;;6223008;23;20076;-72
2023/03/09 03:59:44;;;;;;;0.80;0.80;;;11.80;55.20;;;;;;6187748;23;20001;-72
2023/03/09 04:02:09;;;;;;;0.80;0.80;;;11.70;55.10;;;;;;6197640;23;20390;-72
2023/03/09 04:04:35;;;;;;;0.98;0.90;;;11.80;55.20;;;;;;6197821;23;20012;-72
2023/03/09 04:07:00;;;;;;;1.00;1.00;;;11.80;55.20;;;;;;6197901;23;20000;-72
2023/03/09 04:09:26;;;;;;;1.10;1.00;;;11.80;55.20;;;;;;6188579;23;20008;-72
2023/03/09 04:11:52;;;;;;;0.90;0.90;;;11.70;55.20;;;;;;6197703;23;19997;-72
2023/03/09 04:14:17;;;;;;;1.70;1.05;;;11.70;55.20;;;;;;6197622;23;20028;-72
2023/03/09 04:16:43;;;;;;;0.82;0.82;;;11.70;55.20;;;;;;6197715;23;20092;-72
2023/03/09 04:19:09;;;;;;;0.90;0.90;;;11.70;55.10;;;;;;6197764;23;20004;-72
2023/03/09 04:21:34;;;;;;;1.00;1.00;;;11.70;55.10;;;;;;6197710;23;20076;-72
2023/03/09 04:24:00;;;;;;;1.15;1.05;;;11.70;55.20;;;;;;6197703;23;20001;-72
2023/03/09 04:26:25;;;;;;;1.58;1.48;;;11.70;55.10;;;;;;6214679;23;20079;-70
2023/03/09 04:28:51;;;;;;;1.10;1.00;;;11.70;55.10;;;;;;6224293;23;19996;-69
2023/03/09 04:31:17;;;;;;;0.85;0.70;;;11.70;55.10;;;;;;6224297;23;20004;-69
2023/03/09 04:33:42;;;;;;;1.05;1.00;;;11.70;55.10;;;;;;6224256;23;20015;-70
2023/03/09 04:36:10;;;;;;;0.98;0.98;;;11.70;55.10;;;;;;6214528;23;20037;-70
2023/03/09 04:38:36;;;;;;;0.75;0.75;;;11.70;55.10;;;;;;6225429;23;19992;-69
2023/03/09 04:41:02;;;;;;;0.90;0.90;;;11.70;55.10;;;;;;6226021;23;19996;-70
2023/03/09 04:43:28;;;;;;;0.93;0.93;;;11.70;55.10;;;;;;6226059;23;20452;-69
2023/03/09 04:45:53;;;;;;;1.00;0.80;;;11.70;55.10;;;;;;6226025;23;20064;-69
2023/03/09 04:48:19;;;;;;;1.15;0.90;;;11.70;55.20;;;;;;6226020;23;19997;-69
2023/03/09 04:50:45;;;;;;;1.10;0.98;;;11.70;55.10;;;;;;6225984;23;19996;-70
2023/03/09 04:53:11;;;;;;;0.65;0.65;;;11.70;55.20;;;;;;6225970;23;20378;-69
2023/03/09 04:55:37;;;;;;;0.82;0.82;;;11.70;55.20;;;;;;6225767;23;20012;-69
2023/03/09 04:58:04;;;;;;;1.33;1.20;;;11.70;55.20;;;;;;6216241;23;19992;-69
2023/03/09 05:00:32;;;;;;;1.13;1.02;;;11.70;55.30;;;;;;6215664;23;20487;-69
2023/03/09 05:03:02;;;;;;;0.98;0.88;;;11.70;55.30;;;;;;6215627;23;20012;-72
2023/03/09 05:05:28;;;;;;;0.93;0.82;;;11.70;55.40;;;;;;6215868;23;20001;-73
2023/03/09 05:07:54;;;;;;;1.20;1.00;;;11.70;55.40;;;;;;6215662;23;19992;-73
2023/03/09 05:10:20;;;;;;;0.98;0.85;;;11.70;55.40;;;;;;6225805;23;20005;-73
2023/03/09 05:12:46;;;;;;;0.80;0.80;;;11.70;55.40;;;;;;6225762;23;19997;-73
2023/03/09 05:15:11;;;;;;;0.90;0.90;;;11.70;55.40;;;;;;6215540;23;20440;-73
2023/03/09 05:17:38;;;;;;;0.77;0.77;;;11.70;55.50;;;;;;6225827;23;19999;-72
2023/03/09 05:20:09;;;;;;;0.70;0.70;;;11.70;55.40;;;;;;6225795;23;20000;-73
2023/03/09 05:22:34;;;;;;;1.20;1.05;;;11.70;55.50;;;;;;6216257;23;20072;-69
2023/03/09 05:25:00;;;;;;;1.00;0.90;;;11.70;55.50;;;;;;6225713;23;20384;-70
2023/03/09 05:27:26;;;;;;;0.82;0.82;;;11.70;55.50;;;;;;6225776;23;19996;-70
2023/03/09 05:29:52;;;;;;;0.90;0.85;;;11.70;55.50;;;;;;6225738;23;19996;-70
2023/03/09 05:32:17;;;;;;;1.10;1.00;;;11.70;55.50;;;;;;6225661;23;20007;-69
2023/03/09 05:34:45;;;;;;;0.80;0.80;;;11.80;55.40;;;;;;6225548;23;20091;-69
2023/03/09 05:37:10;;;;;;;0.70;0.70;;;11.70;55.50;;;;;;6225506;23;19997;-70
2023/03/09 05:39:36;;;;;;;0.98;0.95;;;11.70;55.40;;;;;;6225617;23;20001;-72
2023/03/09 05:42:02;;;;;;;0.80;0.80;;;11.70;55.50;;;;;;6225589;23;20432;-70
2023/03/09 05:44:27;;;;;;;0.93;0.93;;;11.70;55.40;;;;;;6225538;23;19996;-70
2023/03/09 05:46:54;;;;;;;1.20;1.10;;;11.80;55.50;;;;;;6225580;23;20068;-69
2023/03/09 05:49:19;;;;;;;1.10;1.10;;;11.70;55.40;;;;;;6225050;23;19996;-69
2023/03/09 05:51:45;;;;;;;1.60;1.50;;;11.70;55.50;;;;;;6225560;23;19993;-70
2023/03/09 05:54:10;;;;;;;2.33;2.22;;;11.70;55.40;;;;;;6225289;23;20050;-69
2023/03/09 05:56:36;;;;;;;3.90;3.60;;;11.70;55.50;;;;;;6225522;23;20001;-69
2023/03/09 05:59:02;;;;;;;5.72;5.32;;;11.80;55.70;;;;;;6225561;23;19992;-73
2023/03/09 06:01:29;;;;;;;10.13;9.35;;;11.80;65.40;;;;;;6225476;23;20031;-72
2023/03/09 06:03:56;;;;;;;11.35;10.55;;;11.70;55.80;;;;;;6215175;23;20031;-73
2023/03/09 06:06:22;;;;;;;16.73;15.43;;;11.70;55.90;;;;;;6215119;23;19997;-73
2023/03/09 06:08:48;;;;;;;21.20;19.50;;;11.70;55.90;;;;;;6225312;23;19993;-72
2023/03/09 06:11:14;;;;;;;26.55;24.45;;;11.70;56.00;;;;;;6225247;23;20455;-73
2023/03/09 06:13:40;;;;;;;30.63;28.20;;;11.70;56.10;;;;;;6225319;23;20000;-73
2023/03/09 06:16:08;;;;;;;39.45;36.25;;;11.70;56.20;;;;;;6215351;23;20313;-72
2023/03/09 06:18:34;;;;;;;47.70;43.55;;;11.70;56.10;;;;;;6215547;23;20056;-69
2023/03/09 06:21:01;;;;;;;53.15;48.50;;;11.80;56.40;;;;;;6215416;23;20477;-69
2023/03/09 06:23:27;;;;;;;55.10;50.40;;;11.70;56.60;;;;;;6225088;23;19992;-70
2023/03/09 06:25:53;;;;;;;53.53;48.55;;;11.70;56.50;;;;;;6215472;23;20051;-70
2023/03/09 06:28:18;;;;;;;52.17;47.58;;;11.70;56.70;;;;;;6225050;23;19997;-70
2023/03/09 06:30:44;;;;;;;52.42;47.72;;;11.80;56.60;;;;;;6225128;23;20004;-69
2023/03/09 06:33:10;;;;;;;49.65;45.30;;;11.70;56.60;;;;;;6225006;23;19996;-71
2023/03/09 06:35:35;;;;;;;47.13;43.10;;;11.70;56.40;;;;;;6224989;23;20016;-69
2023/03/09 06:38:02;;;;;;;45.67;41.63;;;11.70;56.40;;;;;;6225114;23;20517;-69
2023/03/09 06:40:28;;;;;;;46.40;42.30;;;11.70;56.40;;;;;;6224976;23;19996;-71
2023/03/09 06:42:54;;;;;;;44.97;40.97;;;11.80;56.50;;;;;;6225080;23;20004;-69
2023/03/09 06:45:22;;;;;;;39.67;36.28;;;11.80;56.50;;;;;;6224930;23;20388;-69
2023/03/09 06:47:48;;;;;;;38.72;35.40;;;11.70;56.40;;;;;;6224939;23;19992;-69
2023/03/09 06:50:14;;;;;;;37.28;34.00;;;11.70;56.40;;;;;;6224817;23;20004;-69
2023/03/09 06:52:40;;;;;;;35.33;32.22;;;11.70;56.40;;;;;;6224910;23;19997;-69
2023/03/09 06:55:06;;;;;;;36.97;33.78;;;11.70;56.40;;;;;;6224773;23;20040;-68
2023/03/09 06:57:31;;;;;;;35.38;32.22;;;11.70;56.40;;;;;;6224671;23;19996;-68
2023/03/09 06:59:57;;;;;;;32.85;29.85;;;11.70;56.40;;;;;;6224760;23;20031;-68
2023/03/09 07:02:23;;;;;;;31.63;28.92;;;11.80;56.50;;;;;;6224039;23;20335;-69
2023/03/09 07:04:48;;;;;;;31.25;28.55;;;11.70;56.40;;;;;;6224697;23;19996;-68
2023/03/09 07:07:15;;;;;;;28.30;25.80;;;11.80;56.40;;;;;;6224753;23;19997;-70
2023/03/09 07:09:41;;;;;;;28.25;25.85;;;11.80;56.60;;;;;;6224621;23;20064;-70
2023/03/09 07:12:07;;;;;;;27.10;24.73;;;11.80;56.40;;;;;;6224853;23;20071;-70
2023/03/09 07:14:32;;;;;;;25.30;23.00;;;11.80;56.40;;;;;;6224596;23;20432;-71
2023/03/09 07:16:58;;;;;;;23.92;21.92;;;11.80;56.30;;;;;;6224725;23;19992;-71
2023/03/09 07:19:24;;;;;;;22.95;20.95;;;11.80;56.40;;;;;;6214835;23;20000;-70
2023/03/09 07:21:49;;;;;;;21.33;19.33;;;11.80;56.50;;;;;;6213051;23;19997;-71
2023/03/09 07:24:15;;;;;;;22.17;20.25;;;11.80;56.70;;;;;;6224591;23;20083;-71
2023/03/09 07:26:41;;;;;;;20.88;18.98;;;11.80;56.70;;;;;;6224484;23;20047;-71
2023/03/09 07:29:07;;;;;;;18.73;17.13;;;11.80;56.70;;;;;;6214963;23;20025;-71
2023/03/09 07:31:33;;;;;;;18.52;16.83;;;11.90;56.80;;;;;;6224740;23;20001;-71
2023/03/09 07:33:59;;;;;;;18.05;16.50;;;11.90;56.90;;;;;;6224552;23;20059;-71
2023/03/09 07:36:25;;;;;;;17.30;15.80;;;11.90;56.80;;;;;;6224578;23;20075;-70
2023/03/09 07:38:51;;;;;;;15.85;14.45;;;11.90;56.70;;;;;;6224614;23;20102;-70
2023/03/09 07:41:18;;;;;;;14.40;13.10;;;11.90;56.50;;;;;;6224525;23;19997;-69
2023/03/09 07:43:44;;;;;;;14.43;13.13;;;11.90;56.50;;;;;;6224526;23;20621;-68
2023/03/09 07:46:15;;;;;;;13.60;12.30;;;11.90;56.50;;;;;;6224460;23;20024;-68
2023/03/09 07:48:42;;;;;;;11.88;10.80;;;11.90;56.50;;;;;;6214608;23;20000;-72
2023/03/09 07:51:10;;;;;;;11.77;10.63;;;12.00;56.60;;;;;;6214785;23;19993;-72
2023/03/09 07:53:38;;;;;;;10.68;9.77;;;12.00;56.50;;;;;;6214691;23;20004;-72
2023/03/09 07:56:05;;;;;;;10.32;9.43;;;12.00;56.50;;;;;;6214647;23;20009;-72
2023/03/09 07:58:32;;;;;;;10.23;9.10;;;12.00;56.60;;;;;;6214684;23;20020;-72
2023/03/09 08:00:58;;;;;;;9.68;8.77;;;12.10;56.60;;;;;;6214796;23;20000;-72
2023/03/09 08:03:24;;;;;;;9.30;8.50;;;12.10;56.70;;;;;;6214121;23;20381;-72
2023/03/09 08:05:54;;;;;;;9.20;8.38;;;12.00;56.60;;;;;;6214672;23;20009;-72
2023/03/09 08:08:28;;;;;;;9.40;7.93;;;12.10;56.60;;;;;;6214893;23;20004;-72
2023/03/09 08:10:54;;;;;;;8.98;7.57;;;12.00;56.60;;;;;;6224409;23;20001;-72
2023/03/09 08:13:21;;;;;;;7.40;6.80;;;12.10;56.60;;;;;;6215184;23;19992;-73
2023/03/09 08:15:48;;;;;;;7.43;6.82;;;12.10;56.60;;;;;;6226265;23;20005;-72
2023/03/09 08:18:14;;;;;;;7.70;7.00;;;12.10;56.60;;;;;;6216155;23;20000;-72
2023/03/09 08:20:40;;;;;;;7.05;6.45;;;12.20;56.70;;;;;;6216517;23;20001;-71
2023/03/09 08:23:07;;;;;;;6.82;6.18;;;12.10;56.70;;;;;;6216409;23;19997;-72
2023/03/09 08:25:33;;;;;;;6.32;5.78;;;12.10;56.70;;;;;;6216535;23;19996;-72
2023/03/09 08:27:59;;;;;;;6.55;6.05;;;12.20;56.70;;;;;;6216144;23;20031;-72
2023/03/09 08:30:25;;;;;;;6.22;5.68;;;12.20;56.60;;;;;;6226221;23;19997;-72
2023/03/09 08:32:53;;;;;;;5.78;5.28;;;12.20;56.60;;;;;;6215839;23;19997;-72
2023/03/09 08:35:22;;;;;;;6.13;5.53;;;12.20;56.60;;;;;;6226010;23;20015;-72
2023/03/09 08:37:48;;;;;;;6.45;4.90;;;12.20;56.60;;;;;;6216388;23;20050;-72
2023/03/09 08:40:15;;;;;;;6.53;5.60;;;12.20;56.60;;;;;;6215873;23;19997;-72
2023/03/09 08:42:42;;;;;;;5.18;4.68;;;12.20;56.70;;;;;;6216271;23;20000;-72
2023/03/09 08:45:09;;;;;;;4.95;4.55;;;12.20;56.60;;;;;;6216060;23;19997;-68
2023/03/09 08:47:35;;;;;;;4.97;4.45;;;12.20;56.60;;;;;;6215960;23;20003;-68
2023/03/09 08:50:03;;;;;;;6.35;4.50;;;12.20;56.60;;;;;;6216209;23;20066;-68
2023/03/09 08:52:34;;;;;;;4.93;4.45;;;12.20;56.60;;;;;;6216216;23;20046;-68
2023/03/09 08:55:01;;;;;;;4.40;4.00;;;12.30;56.70;;;;;;6216181;23;20015;-69
2023/03/09 08:57:28;;;;;;;4.35;3.67;;;12.30;56.70;;;;;;6216176;23;20020;-69
2023/03/09 08:59:53;;;;;;;4.28;3.90;;;12.30;56.60;;;;;;6225897;23;19997;-69
2023/03/09 09:02:19;;;;;;;4.32;3.90;;;12.30;56.60;;;;;;6225584;23;20063;-72
2023/03/09 09:04:45;;;;;;;4.00;3.70;;;12.30;56.60;;;;;;6226015;23;20063;-72
2023/03/09 09:07:12;;;;;;;4.35;3.92;;;12.30;56.70;;;;;;6225817;23;20392;-72
2023/03/09 09:09:38;;;;;;;3.50;3.10;;;12.30;56.60;;;;;;6225954;23;20054;-72
2023/03/09 09:12:05;;;;;;;3.65;3.08;;;12.30;56.60;;;;;;6215972;23;19996;-72
2023/03/09 09:14:32;;;;;;;3.50;3.20;;;12.30;56.60;;;;;;6214485;23;20131;-72
2023/03/09 09:16:58;;;;;;;3.60;3.20;;;12.30;56.60;;;;;;6225793;23;20004;-72
2023/03/09 09:19:25;;;;;;;3.35;3.10;;;12.30;56.60;;;;;;6215636;23;20459;-72
2023/03/09 09:21:52;;;;;;;3.08;2.78;;;12.30;56.70;;;;;;6215588;23;19997;-68
2023/03/09 09:24:19;;;;;;;3.17;2.88;;;12.40;56.60;;;;;;6215018;23;20095;-68
2023/03/09 09:26:45;;;;;;;3.20;2.90;;;12.40;56.60;;;;;;6215863;23;19997;-68
2023/03/09 09:29:11;;;;;;;3.80;3.30;;;12.40;56.60;;;;;;6215863;23;20009;-68
2023/03/09 09:31:38;;;;;;;2.80;2.60;;;12.40;56.60;;;;;;6215612;23;20455;-68
2023/03/09 09:34:05;;;;;;;3.17;2.70;;;12.40;56.60;;;;;;6215671;23;19997;-68
2023/03/09 09:36:33;;;;;;;2.75;2.55;;;12.40;56.70;;;;;;6215779;23;20001;-69
2023/03/09 09:38:58;;;;;;;3.17;2.88;;;12.40;56.70;;;;;;6225526;23;20050;-72
2023/03/09 09:41:44;;;;;;;3.10;2.80;;;12.50;56.70;;;;;;6225574;23;20379;-72
2023/03/09 09:44:18;;;;;;;4.20;3.25;;;12.40;56.60;;;;;;6215116;23;20000;-72
2023/03/09 09:46:45;;;;;;;2.65;2.45;;;12.40;56.70;;;;;;6214311;23;20250;-71
2023/03/09 09:49:17;;;;;;;2.47;2.28;;;12.50;56.80;;;;;;6215197;23;19997;-72
2023/03/09 09:52:20;;;;;;;2.45;2.25;;;12.50;56.70;;;;;;6225461;23;20003;-72
2023/03/09 09:54:53;;;;;;;3.38;3.08;;;12.50;56.70;;;;;;6225358;23;20004;-73
2023/03/09 09:57:35;;;;;;;2.70;2.50;;;12.50;56.80;;;;;;6215585;23;20001;-68
2023/03/09 10:00:11;;;;;;;2.40;2.20;;;12.50;56.70;;;;;;6215287;23;20498;-72
2023/03/09 10:03:01;;;;;;;3.47;2.70;;;12.50;56.80;;;;;;6214958;23;20471;-73
2023/03/09 10:05:39;;;;;;;2.83;2.63;;;12.50;56.70;;;;;;6215549;23;20008;-72
2023/03/09 10:08:33;;;;;;;3.17;2.58;;;12.50;56.70;;;;;;6215549;23;20039;-72
2023/03/09 10:11:11;;;;;;;2.60;2.40;;;12.50;56.70;;;;;;6215898;23;20415;-72
2023/03/09 10:14:05;;;;;;;3.00;2.25;;;12.50;56.70;;;;;;6215487;23;20003;-73
2023/03/09 10:16:36;;;;;;;2.72;2.53;;;12.50;56.70;;;;;;6225144;23;20012;-72
2023/03/09 10:19:07;;;;;;;2.38;2.17;;;12.60;56.80;;;;;;6225208;23;19993;-72
2023/03/09 10:21:58;;;;;;;3.20;2.90;;;12.60;56.80;;;;;;6215531;23;20320;-72
2023/03/09 10:24:50;;;;;;;2.78;2.58;;;12.60;56.80;;;;;;6225087;23;20005;-72
2023/03/09 10:27:41;;;;;;;2.55;2.35;;;12.60;56.80;;;;;;6215276;23;20007;-72
2023/03/09 10:30:10;;;;;;;3.17;2.78;;;12.60;56.70;;;;;;6215271;23;20060;-73
2023/03/09 10:32:42;;;;;;;3.25;2.72;;;12.60;56.70;;;;;;6214821;23;20000;-71
2023/03/09 10:35:26;;;;;;;2.70;2.50;;;12.60;56.70;;;;;;6215135;23;20363;-74
2023/03/09 10:37:52;;;;;;;2.83;2.63;;;12.60;56.70;;;;;;6215317;23;19997;-74
2023/03/09 10:40:30;;;;;;;2.67;2.45;;;12.60;56.70;;;;;;6215141;23;20047;-74
2023/03/09 10:43:00;;;;;;;2.60;2.33;;;12.60;56.70;;;;;;6215599;23;20032;-73
2023/03/09 10:45:32;;;;;;;2.50;2.30;;;12.70;56.70;;;;;;6215153;23;19996;-72
2023/03/09 10:48:09;;;;;;;3.30;2.20;;;12.60;56.70;;;;;;6224940;23;20336;-74
2023/03/09 10:50:53;;;;;;;3.33;3.03;;;12.70;56.70;;;;;;6215196;23;20003;-74
2023/03/09 10:53:38;;;;;;;3.15;2.65;;;12.70;56.70;;;;;;6224954;23;20463;-70
2023/03/09 10:56:28;;;;;;;2.42;2.22;;;12.70;56.70;;;;;;6215129;23;20015;-70
2023/03/09 10:59:21;;;;;;;3.70;2.40;;;12.70;56.70;;;;;;6215118;23;20332;-70
2023/03/09 11:01:52;;;;;;;2.50;2.30;;;12.70;56.70;;;;;;6203380;23;20523;-70
2023/03/09 11:04:23;;;;;;;3.38;2.20;;;12.70;56.70;;;;;;6224814;23;20004;-69
2023/03/09 11:06:51;;;;;;;2.30;2.10;;;12.70;56.80;;;;;;6224868;23;20001;-70
2023/03/09 11:09:43;;;;;;;2.20;2.00;;;12.70;56.80;;;;;;6224699;23;20000;-71
2023/03/09 11:12:21;;;;;;;2.17;1.98;;;12.70;56.90;;;;;;6212252;23;20062;-73
2023/03/09 11:14:53;;;;;;;2.47;2.25;;;12.70;56.90;;;;;;6224612;23;20044;-73
2023/03/09 11:17:45;;;;;;;2.33;2.13;;;12.80;56.90;;;;;;6224625;23;19997;-73
2023/03/09 11:20:24;;;;;;;2.63;2.30;;;12.80;56.90;;;;;;6218646;23;20301;-76
2023/03/09 11:23:00;;;;;;;2.50;2.30;;;12.80;56.90;;;;;;6224734;23;20370;-73
2023/03/09 11:26:05;;;;;;;2.70;2.50;;;12.70;56.90;;;;;;6224612;23;19996;-73
2023/03/09 11:28:51;;;;;;;3.30;2.75;;;12.80;56.80;;;;;;6213888;23;20012;-74
2023/03/09 11:31:22;;;;;;;2.70;2.22;;;12.80;56.90;;;;;;6214463;23;20432;-73
2023/03/09 11:33:49;;;;;;;2.55;2.35;;;12.80;56.80;;;;;;6224592;23;19997;-73
2023/03/09 11:36:24;;;;;;;2.83;2.63;;;12.80;56.70;;;;;;6224551;23;20005;-73
2023/03/09 11:38:50;;;;;;;2.53;2.30;;;12.80;56.60;;;;;;6214517;23;20048;-73
2023/03/09 11:41:32;;;;;;;2.72;2.50;;;12.80;56.70;;;;;;6215166;23;20039;-73
2023/03/09 11:44:08;;;;;;;2.50;2.30;;;12.80;56.60;;;;;;6214874;23;19996;-73
2023/03/09 11:46:35;;;;;;;2.33;2.13;;;12.80;57.20;;;;;;6214731;23;20089;-73
2023/03/09 11:49:19;;;;;;;2.33;2.13;;;12.80;56.70;;;;;;6216589;23;20328;-70
2023/03/09 11:51:50;;;;;;;2.45;2.25;;;12.80;56.60;;;;;;6216608;23;20000;-70
2023/03/09 11:54:41;;;;;;;2.30;2.00;;;12.90;56.50;;;;;;6216728;23;20020;-70
2023/03/09 11:57:13;;;;;;;2.50;2.30;;;12.80;57.20;;;;;;6216932;23;20000;-70
2023/03/09 11:59:43;;;;;;;2.20;2.00;;;12.80;56.60;;;;;;6216819;23;19999;-70
2023/03/09 12:02:45;;;;;;;2.10;2.00;;;12.80;56.50;;;;;;6226405;23;20032;-70
2023/03/09 12:05:15;;;;;;;2.33;2.13;;;12.90;56.50;;;;;;6226566;23;20008;-70
2023/03/09 12:08:02;;;;;;;2.35;2.15;;;12.80;56.50;;;;;;6226909;23;20451;-70
2023/03/09 12:10:39;;;;;;;2.30;2.10;;;12.90;56.50;;;;;;6226480;23;20486;-70
2023/03/09 12:13:16;;;;;;;2.33;2.13;;;12.80;56.50;;;;;;6226909;23;19996;-70
2023/03/09 12:16:00;;;;;;;2.78;2.17;;;12.90;56.50;;;;;;6216092;23;20009;-70
2023/03/09 12:18:38;;;;;;;2.33;2.05;;;12.90;56.40;;;;;;6214830;23;20440;-70
2023/03/09 12:21:11;;;;;;;2.38;2.10;;;12.90;56.40;;;;;;6226408;23;20044;-70
2023/03/09 12:23:36;;;;;;;2.58;2.38;;;12.90;56.40;;;;;;6226229;23;19993;-69
2023/03/09 12:26:19;;;;;;;2.70;2.33;;;12.90;56.40;;;;;;6216376;23;20091;-73
2023/03/09 12:29:13;;;;;;;2.83;2.17;;;12.90;56.40;;;;;;6226179;23;20024;-73
2023/03/09 12:31:39;;;;;;;2.60;2.10;;;12.90;56.30;;;;;;6226291;23;20039;-74
2023/03/09 12:34:24;;;;;;;2.30;2.10;;;12.90;56.40;;;;;;6226236;23;20068;-73
2023/03/09 12:36:51;;;;;;;2.70;2.50;;;12.90;57.10;;;;;;6215953;23;20028;-74
2023/03/09 12:39:24;;;;;;;2.78;2.58;;;12.90;56.40;;;;;;6214501;23;20298;-73
2023/03/09 12:42:03;;;;;;;2.97;2.60;;;12.90;56.40;;;;;;6226327;23;19999;-73
2023/03/09 12:44:44;;;;;;;2.72;2.53;;;12.90;56.40;;;;;;6226259;23;20001;-74
2023/03/09 12:47:47;;;;;;;3.53;2.67;;;12.90;56.40;;;;;;6226134;23;19996;-73
2023/03/09 12:50:45;;;;;;;2.60;2.40;;;12.90;56.50;;;;;;6226081;23;19997;-73
2023/03/09 12:53:14;;;;;;;4.07;2.45;;;12.80;56.50;;;;;;6226148;23;20344;-74
2023/03/09 12:55:39;;;;;;;3.22;2.00;;;12.80;56.50;;;;;;6215817;23;20024;-73